Ambleve, Belgium
Current Conditions -  °F | °C
As of 9:25 PM on Thursday 20 Nov 2014 (Local Time) from EBLB Reporting Station
Broken Clouds Broken Clouds  
Wind Chill: 31°   Ceiling: 500
Heat Index: 37°   Visibility: 4mi
Dew Point: 36°   Wind: 8mph
Humidity: 93%   Direction: 130°SE
Pressure: 30.24"   Gusts: NA
Location:  50.35°N, 6.17°E
Report Text: EBLB 202025Z AUTO 13007KT 7000 BKN005/// 03/02 Q1024 YLO
Loading
Personal Weather Stations






























Interactive Weather Map New forecast layout! Learn more

10-Day Weather Forecast

Advertisements
Track Severe Weather on mobile